createdAt,value
2023-03-20T00:01:15.735Z,101182.28
2023-03-20T00:03:44.011Z,101200.56
2023-03-20T00:06:17.685Z,101192.59
2023-03-20T00:08:47.144Z,101190.00
2023-03-20T00:11:30.922Z,101190.97
2023-03-20T00:14:11.970Z,101195.28
2023-03-20T00:16:44.068Z,101176.97
2023-03-20T00:19:18.175Z,101183.19
2023-03-20T00:21:47.736Z,101173.56
2023-03-20T00:24:16.679Z,101171.19
2023-03-20T00:26:46.706Z,101173.81
2023-03-20T00:29:31.038Z,101177.16
2023-03-20T00:31:59.375Z,101176.19
2023-03-20T00:34:29.866Z,101174.41
2023-03-20T00:36:58.237Z,101188.38
2023-03-20T00:39:27.373Z,101180.47
2023-03-20T00:42:06.782Z,101178.78
2023-03-20T00:44:41.978Z,101178.75
2023-03-20T00:47:24.414Z,101169.13
2023-03-20T00:49:56.410Z,101169.19
2023-03-20T00:52:24.971Z,101175.41
2023-03-20T00:54:52.955Z,101167.50
2023-03-20T00:57:31.240Z,101170.94
2023-03-20T01:00:02.002Z,101175.34
2023-03-20T01:02:32.227Z,101167.50
2023-03-20T01:05:01.276Z,101165.75
2023-03-20T01:07:31.245Z,101172.78
2023-03-20T01:09:58.982Z,101177.22
2023-03-20T01:12:28.475Z,101169.31
2023-03-20T01:14:58.276Z,101170.22
2023-03-20T01:17:29.206Z,101165.81
2023-03-20T01:19:57.145Z,101168.38
2023-03-20T01:22:25.197Z,101167.47
2023-03-20T01:24:53.298Z,101161.38
2023-03-20T01:27:40.065Z,101161.41
2023-03-20T01:30:40.042Z,101166.59
2023-03-20T01:33:21.486Z,101171.84
2023-03-20T01:35:53.984Z,101164.03
2023-03-20T01:38:24.966Z,101156.00
2023-03-20T01:41:10.362Z,101147.22
2023-03-20T01:43:39.977Z,101151.69
2023-03-20T01:46:12.079Z,101154.34
2023-03-20T01:48:52.648Z,101155.22
2023-03-20T01:51:36.143Z,101143.00
2023-03-20T01:54:13.152Z,101142.06
2023-03-20T01:56:59.752Z,101128.97
2023-03-20T01:59:32.209Z,101125.44
2023-03-20T02:02:00.530Z,101130.66
2023-03-20T02:04:36.354Z,101137.63
2023-03-20T02:07:11.192Z,101129.75
2023-03-20T02:09:48.059Z,101133.25
2023-03-20T02:12:21.980Z,101139.47
2023-03-20T02:14:53.260Z,101138.50
2023-03-20T02:17:43.702Z,101125.41
2023-03-20T02:20:21.034Z,101140.22
2023-03-20T02:23:30.815Z,101148.22
2023-03-20T02:26:02.829Z,101144.75
2023-03-20T02:29:09.151Z,101149.16
2023-03-20T02:32:22.523Z,101145.56
2023-03-20T02:35:02.385Z,101146.44
2023-03-20T02:38:03.843Z,101144.66
2023-03-20T02:40:59.461Z,101137.66
2023-03-20T02:43:33.649Z,101141.19
2023-03-20T02:46:28.875Z,101140.28
2023-03-20T02:49:20.801Z,101140.34
2023-03-20T02:52:17.670Z,101124.63
2023-03-20T02:54:57.248Z,101132.56
2023-03-20T02:57:52.005Z,101133.38
2023-03-20T03:00:42.717Z,101123.78
2023-03-20T03:03:34.423Z,101122.91
2023-03-20T03:06:10.341Z,101123.75
2023-03-20T03:08:43.487Z,101117.63
2023-03-20T03:11:11.308Z,101108.88
2023-03-20T03:13:49.864Z,101103.63
2023-03-20T03:16:27.056Z,101115.13
2023-03-20T03:19:07.736Z,101111.59
2023-03-20T03:21:39.392Z,101114.25
2023-03-20T03:24:37.363Z,101105.44
2023-03-20T03:27:23.473Z,101117.75
2023-03-20T03:29:57.460Z,101103.69
2023-03-20T03:32:28.294Z,101120.34
2023-03-20T03:34:59.978Z,101110.75
2023-03-20T03:37:58.876Z,101116.91
2023-03-20T03:40:42.623Z,101110.72
2023-03-20T03:43:23.194Z,101126.50
2023-03-20T03:46:17.421Z,101115.97
2023-03-20T03:48:51.988Z,101128.25
2023-03-20T03:51:26.689Z,101120.31
2023-03-20T03:54:16.269Z,101115.03
2023-03-20T03:56:50.395Z,101114.16
2023-03-20T03:59:36.812Z,101112.38
2023-03-20T04:02:08.629Z,101113.22
2023-03-20T04:04:42.303Z,101111.44
2023-03-20T04:07:14.255Z,101113.19
2023-03-20T04:09:42.275Z,101107.06
2023-03-20T04:12:32.164Z,101101.06
2023-03-20T04:15:02.902Z,101099.22
2023-03-20T04:17:32.517Z,101092.13
2023-03-20T04:20:01.182Z,101092.97
2023-03-20T04:22:28.984Z,101101.75
2023-03-20T04:25:01.154Z,101093.91
2023-03-20T04:27:29.183Z,101103.69
2023-03-20T04:29:59.498Z,101110.72
2023-03-20T04:32:50.115Z,101108.06
2023-03-20T04:35:30.730Z,101103.72
2023-03-20T04:38:05.947Z,101113.38
2023-03-20T04:40:37.633Z,101099.28
2023-03-20T04:43:16.946Z,101099.22
2023-03-20T04:45:49.369Z,101095.78
2023-03-20T04:48:17.289Z,101106.34
2023-03-20T04:50:48.571Z,101099.34
2023-03-20T04:53:18.905Z,101116.91
2023-03-20T04:55:52.979Z,101106.38
2023-03-20T04:58:21.337Z,101102.81
2023-03-20T05:00:51.884Z,101129.16
2023-03-20T05:03:22.542Z,101114.28
2023-03-20T05:05:51.991Z,101122.16
2023-03-20T05:08:19.796Z,101109.88
2023-03-20T05:10:47.788Z,101112.50
2023-03-20T05:13:35.898Z,101120.41
2023-03-20T05:16:19.433Z,101121.25
2023-03-20T05:18:59.672Z,101120.38
2023-03-20T05:21:41.601Z,101118.66
2023-03-20T05:24:25.978Z,101116.00
2023-03-20T05:27:29.931Z,101112.47
2023-03-20T05:31:09.815Z,101108.88
2023-03-20T05:35:43.026Z,101119.47
2023-03-20T05:44:27.952Z,101134.41
2023-03-20T06:01:19.478Z,101148.50
2023-03-20T06:27:59.865Z,101194.88
2023-03-20T06:49:54.839Z,101196.41
2023-03-20T06:53:02.394Z,101198.03
2023-03-20T06:56:22.024Z,101197.69
2023-03-20T06:59:49.166Z,101196.28
2023-03-20T07:03:04.724Z,101194.38
2023-03-20T07:14:56.044Z,101211.88
2023-03-20T07:18:13.128Z,101203.59
2023-03-20T07:21:22.309Z,101207.19
2023-03-20T07:24:01.905Z,101209.88
2023-03-20T07:26:37.865Z,101207.94
2023-03-20T07:29:11.543Z,101210.34
2023-03-20T07:31:42.001Z,101217.03
2023-03-20T07:34:14.465Z,101211.41
2023-03-20T07:37:14.059Z,101227.25
2023-03-20T07:39:48.595Z,101223.50
2023-03-20T07:42:31.266Z,101220.41
2023-03-20T07:45:01.844Z,101220.88
2023-03-20T07:47:32.329Z,101221.63
2023-03-20T07:50:17.795Z,101221.44
2023-03-20T07:52:55.569Z,101226.47
2023-03-20T07:55:57.108Z,101222.25
2023-03-20T08:02:07.679Z,101229.56
2023-03-20T08:04:44.140Z,101236.66
2023-03-20T08:07:12.893Z,101222.56
2023-03-20T08:09:47.051Z,101230.88
2023-03-20T08:12:24.572Z,101223.84
2023-03-20T08:15:18.431Z,101238.34
2023-03-20T08:18:14.425Z,101242.16
2023-03-20T08:20:42.535Z,101243.44
2023-03-20T08:23:13.274Z,101242.03
2023-03-20T08:25:42.381Z,101239.38
2023-03-20T08:28:12.010Z,101251.78
2023-03-20T08:30:39.976Z,101238.56
2023-03-20T08:33:07.973Z,101239.97
2023-03-20T08:35:41.168Z,101241.75
2023-03-20T08:38:28.296Z,101252.78
2023-03-20T08:41:01.456Z,101241.84
2023-03-20T08:43:43.323Z,101243.22
2023-03-20T08:46:21.636Z,101245.44
2023-03-20T08:49:07.977Z,101252.25
2023-03-20T08:51:50.057Z,101249.78
2023-03-20T08:54:27.977Z,101251.03
2023-03-20T08:57:10.745Z,101244.06
2023-03-20T08:59:46.401Z,101246.16
2023-03-20T09:02:36.553Z,101244.41
2023-03-20T09:17:17.591Z,101234.03
2023-03-20T09:30:02.000Z,101238.53
2023-03-20T09:37:38.380Z,101240.34
2023-03-20T09:53:12.951Z,101243.94
2023-03-20T10:00:06.903Z,101238.88
2023-03-20T10:03:59.456Z,101248.34
2023-03-20T10:07:04.980Z,101227.38
2023-03-20T10:14:23.656Z,101231.84
2023-03-20T10:18:02.936Z,101223.34
2023-03-20T10:21:19.348Z,101230.72
2023-03-20T10:24:35.352Z,101234.72
2023-03-20T10:27:34.289Z,101235.03
2023-03-20T10:30:28.848Z,101219.06
2023-03-20T10:33:21.081Z,101220.53
2023-03-20T10:36:58.020Z,101221.81
2023-03-20T10:39:53.610Z,101216.38
2023-03-20T10:42:58.792Z,101205.59
2023-03-20T10:46:09.552Z,101219.25
2023-03-20T10:49:20.021Z,101211.41
2023-03-20T10:55:50.474Z,101187.66
2023-03-20T10:58:34.625Z,101189.34
2023-03-20T11:01:13.570Z,101193.53
2023-03-20T11:03:44.672Z,101172.69
2023-03-20T11:06:50.506Z,101180.59
2023-03-20T11:09:36.289Z,101179.25
2023-03-20T11:12:25.026Z,101173.00
2023-03-20T11:15:37.173Z,101182.78
2023-03-20T11:18:28.093Z,101172.19
2023-03-20T11:21:18.095Z,101176.47
2023-03-20T11:24:03.441Z,101183.38
2023-03-20T11:27:12.224Z,101172.34
2023-03-20T11:30:16.791Z,101166.91
2023-03-20T11:33:13.387Z,101168.06
2023-03-20T11:37:06.392Z,101162.22
2023-03-20T11:40:46.435Z,101151.97
2023-03-20T11:44:14.539Z,101142.97
2023-03-20T11:48:04.005Z,101155.47
2023-03-20T11:55:44.462Z,101134.53
2023-03-20T11:59:05.372Z,101131.66
2023-03-20T12:03:01.924Z,101137.78
2023-03-20T12:06:15.202Z,101135.03
2023-03-20T12:10:13.546Z,101116.53
2023-03-20T12:13:54.138Z,101114.00
2023-03-20T12:16:45.176Z,101127.50
2023-03-20T12:19:45.394Z,101121.16
2023-03-20T12:22:38.874Z,101117.25
2023-03-20T12:25:39.621Z,101118.63
2023-03-20T12:28:41.433Z,101112.09
2023-03-20T12:31:47.124Z,101103.63
2023-03-20T12:34:50.578Z,101109.59
2023-03-20T12:37:34.889Z,101100.53
2023-03-20T12:40:17.763Z,101103.75
2023-03-20T12:42:58.465Z,101106.13
2023-03-20T12:46:31.621Z,101102.28
2023-03-20T12:53:08.740Z,101095.19
2023-03-20T12:56:21.316Z,101090.38
2023-03-20T12:59:10.773Z,101094.38
2023-03-20T13:02:45.003Z,101082.28
2023-03-20T13:17:35.741Z,101094.44
2023-03-20T13:20:10.393Z,101090.09
2023-03-20T13:22:54.033Z,101082.31
2023-03-20T13:25:30.336Z,101081.16
2023-03-20T13:28:31.058Z,101066.31
2023-03-20T13:31:02.142Z,101072.38
2023-03-20T13:33:57.589Z,101072.31
2023-03-20T13:36:49.464Z,101075.53
2023-03-20T13:39:35.585Z,101075.53
2023-03-20T13:42:08.652Z,101073.56
2023-03-20T13:44:36.376Z,101070.47
2023-03-20T13:47:18.936Z,101076.72
2023-03-20T13:49:52.180Z,101065.47
2023-03-20T13:52:26.382Z,101071.78
2023-03-20T13:54:59.588Z,101061.25
2023-03-20T13:57:33.056Z,101067.41
2023-03-20T14:00:18.863Z,101067.09
2023-03-20T14:03:12.816Z,101064.22
2023-03-20T14:05:43.135Z,101065.66
2023-03-20T14:08:37.004Z,101064.41
2023-03-20T14:11:12.341Z,101067.03
2023-03-20T14:13:42.664Z,101063.53
2023-03-20T14:16:12.018Z,101062.13
2023-03-20T14:18:41.793Z,101065.34
2023-03-20T14:21:15.320Z,101063.50
2023-03-20T14:23:47.471Z,101065.50
2023-03-20T14:26:26.170Z,101067.84
2023-03-20T14:28:53.501Z,101061.84
2023-03-20T14:31:25.330Z,101065.75
2023-03-20T14:34:11.984Z,101055.75
2023-03-20T14:36:52.629Z,101054.72
2023-03-20T14:39:26.067Z,101055.25
2023-03-20T14:42:02.261Z,101053.19
2023-03-20T14:45:24.928Z,101045.88
2023-03-20T14:48:36.838Z,101063.38
2023-03-20T14:51:22.560Z,101047.53
2023-03-20T14:54:33.530Z,101050.50
2023-03-20T14:57:24.360Z,101054.19
2023-03-20T14:59:57.503Z,101039.91
2023-03-20T15:02:34.577Z,101040.06
2023-03-20T15:05:03.264Z,101052.31
2023-03-20T15:07:37.330Z,101051.09
2023-03-20T15:10:05.921Z,101031.44
2023-03-20T15:12:40.912Z,101044.16
2023-03-20T15:15:27.558Z,101039.34
2023-03-20T15:18:04.320Z,101042.31
2023-03-20T15:20:34.983Z,101047.91
2023-03-20T15:23:52.601Z,101041.59
2023-03-20T15:26:38.648Z,101040.72
2023-03-20T15:29:15.149Z,101036.50
2023-03-20T15:31:43.243Z,101050.91
2023-03-20T15:34:24.519Z,101047.81
2023-03-20T15:36:56.732Z,101054.25
2023-03-20T15:39:27.063Z,101042.88
2023-03-20T15:42:04.265Z,101056.06
2023-03-20T15:44:40.489Z,101047.34
2023-03-20T15:47:21.959Z,101056.91
2023-03-20T15:50:02.100Z,101040.22
2023-03-20T15:52:52.808Z,101041.91
2023-03-20T15:55:24.191Z,101041.13
2023-03-20T15:57:57.070Z,101047.97
2023-03-20T16:00:42.755Z,101049.59
2023-03-20T16:03:17.135Z,101047.28
2023-03-20T16:05:47.530Z,101043.53
2023-03-20T16:08:33.349Z,101044.00
2023-03-20T16:11:05.293Z,101049.13
2023-03-20T16:13:46.664Z,101053.50
2023-03-20T16:16:17.721Z,101043.13
2023-03-20T16:18:48.114Z,101046.16
2023-03-20T16:21:22.553Z,101049.09
2023-03-20T16:23:53.703Z,101052.56
2023-03-20T16:26:23.500Z,101050.16
2023-03-20T16:29:02.839Z,101047.19
2023-03-20T16:31:35.879Z,101058.97
2023-03-20T16:34:10.466Z,101055.34
2023-03-20T16:36:38.969Z,101055.66
2023-03-20T16:39:08.644Z,101065.16
2023-03-20T16:41:40.603Z,101069.91
2023-03-20T16:44:32.683Z,101071.69
2023-03-20T16:47:01.779Z,101061.34
2023-03-20T16:49:35.096Z,101075.50
2023-03-20T16:52:12.857Z,101070.06
2023-03-20T16:54:40.962Z,101075.31
2023-03-20T16:57:17.240Z,101061.91
2023-03-20T16:59:45.898Z,101072.63
2023-03-20T17:02:36.598Z,101074.66
2023-03-20T17:05:07.816Z,101071.41
2023-03-20T17:07:38.062Z,101070.66
2023-03-20T17:10:16.968Z,101079.38
2023-03-20T17:12:47.555Z,101077.53
2023-03-20T17:15:34.646Z,101083.59
2023-03-20T17:18:15.519Z,101079.69
2023-03-20T17:20:51.776Z,101083.38
2023-03-20T17:23:44.489Z,101098.47
2023-03-20T17:27:12.216Z,101082.34
2023-03-20T17:30:09.369Z,101099.91
2023-03-20T17:37:03.513Z,101086.16
2023-03-20T17:40:14.500Z,101091.22
2023-03-20T17:50:45.992Z,101099.22
2023-03-20T20:54:03.417Z,101195.53
2023-03-20T21:14:37.174Z,101181.69
2023-03-20T22:02:09.380Z,101195.91
